createdAt,value
2018-11-02T00:01:41.565Z,86.67
2018-11-02T00:04:12.521Z,80.53
2018-11-02T00:06:43.264Z,79.30
2018-11-02T00:09:28.455Z,82.17
2018-11-02T00:11:58.971Z,83.17
2018-11-02T00:14:29.711Z,82.93
2018-11-02T00:17:00.579Z,86.97
2018-11-02T00:19:35.929Z,81.37
2018-11-02T00:22:07.086Z,77.03
2018-11-02T00:24:37.873Z,74.77
2018-11-02T00:27:08.487Z,72.37
2018-11-02T00:29:39.346Z,72.33
2018-11-02T00:32:09.966Z,71.97
2018-11-02T00:34:40.441Z,70.77
2018-11-02T00:37:10.891Z,68.17
2018-11-02T00:39:41.514Z,67.63
2018-11-02T00:42:12.135Z,69.43
2018-11-02T00:44:42.549Z,67.57
2018-11-02T00:47:13.101Z,69.13
2018-11-02T00:49:43.584Z,65.30
2018-11-02T00:52:14.076Z,64.73
2018-11-02T00:54:44.599Z,64.73
2018-11-02T00:57:15.133Z,61.37
2018-11-02T00:59:45.547Z,62.13
2018-11-02T01:02:16.061Z,59.53
2018-11-02T01:04:46.549Z,59.83
2018-11-02T01:07:17.052Z,60.20
2018-11-02T01:09:47.536Z,61.37
2018-11-02T01:12:17.998Z,62.30
2018-11-02T01:14:48.433Z,62.93
2018-11-02T01:17:18.820Z,60.87
2018-11-02T01:19:49.352Z,61.00
2018-11-02T01:22:19.837Z,62.20
2018-11-02T01:24:50.794Z,60.90
2018-11-02T01:27:21.413Z,59.47
2018-11-02T01:29:52.099Z,59.73
2018-11-02T01:32:22.559Z,59.57
2018-11-02T01:34:52.916Z,59.07
2018-11-02T01:37:23.398Z,58.73
2018-11-02T01:39:53.915Z,59.07
2018-11-02T01:42:24.475Z,58.00
2018-11-02T01:44:55.286Z,56.53
2018-11-02T01:47:26.810Z,55.53
2018-11-02T01:49:57.474Z,56.10
2018-11-02T01:52:28.010Z,57.13
2018-11-02T01:54:58.604Z,56.17
2018-11-02T01:57:29.406Z,56.23
2018-11-02T01:59:59.951Z,55.63
2018-11-02T02:02:30.266Z,57.03
2018-11-02T02:05:00.698Z,61.75
2018-11-02T02:07:31.171Z,57.47
2018-11-02T02:10:01.646Z,56.27
2018-11-02T02:12:31.938Z,57.53
2018-11-02T02:15:02.296Z,61.43
2018-11-02T02:17:32.680Z,59.37
2018-11-02T02:20:03.131Z,69.37
2018-11-02T02:22:33.485Z,85.27
2018-11-02T02:25:04.264Z,85.37
2018-11-02T02:27:37.258Z,71.73
2018-11-02T02:30:11.686Z,69.33
2018-11-02T02:32:42.205Z,72.90
2018-11-02T02:35:15.205Z,70.83
2018-11-02T02:37:45.923Z,86.95
2018-11-02T02:40:16.578Z,71.37
2018-11-02T02:42:46.861Z,63.87
2018-11-02T02:45:17.400Z,58.63
2018-11-02T02:47:47.641Z,56.40
2018-11-02T02:50:18.219Z,55.10
2018-11-02T02:52:49.042Z,52.67
2018-11-02T02:55:19.261Z,54.03
2018-11-02T02:57:49.629Z,53.60
2018-11-02T03:00:20.011Z,58.38
2018-11-02T03:02:50.353Z,53.40
2018-11-02T03:05:20.553Z,52.13
2018-11-02T03:07:50.941Z,53.70
2018-11-02T03:10:21.451Z,52.67
2018-11-02T03:12:51.663Z,53.00
2018-11-02T03:15:21.942Z,52.93
2018-11-02T03:17:52.295Z,53.53
2018-11-02T03:20:22.551Z,55.13
2018-11-02T03:22:53.046Z,55.70
2018-11-02T03:25:23.466Z,58.17
2018-11-02T03:27:53.673Z,56.73
2018-11-02T03:30:24.180Z,56.40
2018-11-02T03:32:54.435Z,54.67
2018-11-02T03:35:24.833Z,53.20
2018-11-02T03:37:55.153Z,52.53
2018-11-02T03:40:25.584Z,53.60
2018-11-02T03:42:55.861Z,54.80
2018-11-02T03:45:26.220Z,54.10
2018-11-02T03:47:56.510Z,56.67
2018-11-02T03:50:26.770Z,55.50
2018-11-02T03:52:57.013Z,55.87
2018-11-02T03:55:27.372Z,56.00
2018-11-02T03:57:57.928Z,56.63
2018-11-02T04:00:28.418Z,56.50
2018-11-02T04:02:58.719Z,56.53
2018-11-02T04:05:29.070Z,56.47
2018-11-02T04:07:59.437Z,55.07
2018-11-02T04:10:29.804Z,56.50
2018-11-02T04:12:59.992Z,56.87
2018-11-02T04:15:30.508Z,56.87
2018-11-02T04:18:00.816Z,56.00
2018-11-02T04:20:31.169Z,57.60
2018-11-02T04:23:01.454Z,57.40
2018-11-02T04:25:31.888Z,58.80
2018-11-02T04:28:02.263Z,59.00
2018-11-02T04:30:32.435Z,57.33
2018-11-02T04:33:02.654Z,55.80
2018-11-02T04:35:33.080Z,54.77
2018-11-02T04:38:03.357Z,56.93
2018-11-02T04:40:33.823Z,57.23
2018-11-02T04:43:04.415Z,57.63
2018-11-02T04:45:40.628Z,57.47
2018-11-02T04:48:13.075Z,57.73
2018-11-02T04:50:43.374Z,55.97
2018-11-02T04:53:13.662Z,59.43
2018-11-02T04:55:44.171Z,58.57
2018-11-02T04:58:14.593Z,59.30
2018-11-02T05:00:45.320Z,62.33
2018-11-02T05:03:15.564Z,63.53
2018-11-02T05:05:45.767Z,61.00
2018-11-02T05:08:16.257Z,62.07
2018-11-02T05:10:46.500Z,61.60
2018-11-02T05:13:16.922Z,61.67
2018-11-02T05:15:47.206Z,59.00
2018-11-02T05:18:17.579Z,60.80
2018-11-02T05:20:47.929Z,58.47
2018-11-02T05:23:18.191Z,60.50
2018-11-02T05:25:48.591Z,61.03
2018-11-02T05:28:18.784Z,61.67
2018-11-02T05:30:49.177Z,61.50
2018-11-02T05:33:19.494Z,60.70
2018-11-02T05:35:50.080Z,62.17
2018-11-02T05:38:20.555Z,61.40
2018-11-02T05:40:51.051Z,58.93
2018-11-02T05:43:21.860Z,60.73
2018-11-02T05:45:52.599Z,60.90
2018-11-02T05:48:23.349Z,59.37
2018-11-02T05:50:53.519Z,61.93
2018-11-02T05:53:23.838Z,63.10
2018-11-02T05:55:54.318Z,65.90
2018-11-02T05:58:24.535Z,64.60
2018-11-02T06:00:54.805Z,64.87
2018-11-02T06:03:25.206Z,64.67
2018-11-02T06:05:55.569Z,67.03
2018-11-02T06:08:27.117Z,64.97
2018-11-02T06:10:58.390Z,60.80
2018-11-02T06:13:28.971Z,62.30
2018-11-02T06:15:59.413Z,58.07
2018-11-02T06:18:37.070Z,68.80
2018-11-02T06:21:07.521Z,64.60
2018-11-02T06:23:38.210Z,59.87
2018-11-02T06:26:08.417Z,59.27
2018-11-02T06:28:39.213Z,57.60
2018-11-02T06:31:10.250Z,65.13
2018-11-02T06:33:40.623Z,62.07
2018-11-02T06:36:11.014Z,55.87
2018-11-02T06:38:41.588Z,54.17
2018-11-02T06:41:11.836Z,51.80
2018-11-02T06:43:42.751Z,50.20
2018-11-02T06:46:12.964Z,51.40
2018-11-02T06:48:45.686Z,48.57
2018-11-02T06:51:16.180Z,50.33
2018-11-02T06:53:46.372Z,47.67
2018-11-02T06:56:16.830Z,50.70
2018-11-02T06:58:47.137Z,51.37
2018-11-02T07:01:17.629Z,51.33
2018-11-02T07:03:47.913Z,54.17
2018-11-02T07:06:18.187Z,52.00
2018-11-02T07:08:48.824Z,53.40
2018-11-02T07:11:22.078Z,54.43
2018-11-02T07:13:52.816Z,52.43
2018-11-02T07:16:23.278Z,53.40
2018-11-02T07:18:53.578Z,53.03
2018-11-02T07:21:25.830Z,51.67
2018-11-02T07:23:56.388Z,49.33
2018-11-02T07:26:26.678Z,48.83
2018-11-02T07:28:57.005Z,47.37
2018-11-02T07:31:27.144Z,43.13
2018-11-02T07:33:57.239Z,47.53
2018-11-02T07:36:27.485Z,46.70
2018-11-02T07:39:13.515Z,48.17
2018-11-02T07:41:49.662Z,49.80
2018-11-02T07:44:20.195Z,44.27
2018-11-02T07:46:57.178Z,47.83
2018-11-02T07:49:28.096Z,43.80
2018-11-02T07:51:58.387Z,42.83
2018-11-02T07:54:28.461Z,42.47
2018-11-02T07:56:58.690Z,43.20
2018-11-02T07:59:28.944Z,42.07
2018-11-02T08:01:59.079Z,41.73
2018-11-02T08:04:29.106Z,37.87
2018-11-02T08:06:59.289Z,39.20
2018-11-02T08:09:29.843Z,38.87
2018-11-02T08:12:00.319Z,43.20
2018-11-02T08:14:31.042Z,40.00
2018-11-02T08:17:01.790Z,47.08
2018-11-02T08:19:32.718Z,45.90
2018-11-02T08:22:05.087Z,44.33
2018-11-02T08:24:35.901Z,43.87
2018-11-02T08:27:06.971Z,46.17
2018-11-02T08:29:37.708Z,45.93
2018-11-02T08:32:08.256Z,44.47
2018-11-02T08:34:38.756Z,42.87
2018-11-02T08:37:09.518Z,43.13
2018-11-02T08:39:40.171Z,44.33
2018-11-02T08:42:10.881Z,46.48
2018-11-02T08:44:41.523Z,42.80
2018-11-02T08:47:12.299Z,43.23
2018-11-02T08:49:43.074Z,44.33
2018-11-02T08:52:13.486Z,43.63
2018-11-02T08:54:44.246Z,44.73
2018-11-02T08:57:14.855Z,43.77
2018-11-02T08:59:45.376Z,45.83
2018-11-02T09:02:15.623Z,44.40
2018-11-02T09:04:45.955Z,46.43
2018-11-02T09:07:16.811Z,47.07
2018-11-02T09:09:47.873Z,47.50
2018-11-02T09:12:18.727Z,46.90
2018-11-02T09:14:50.264Z,46.83
2018-11-02T09:17:20.820Z,51.47
2018-11-02T09:19:51.343Z,44.97
2018-11-02T09:22:21.919Z,44.37
2018-11-02T09:24:52.730Z,45.03
2018-11-02T09:27:23.489Z,42.77
2018-11-02T09:29:54.195Z,43.77
2018-11-02T09:32:24.865Z,43.80
2018-11-02T09:34:55.408Z,40.80
2018-11-02T09:37:26.022Z,39.73
2018-11-02T09:39:58.249Z,40.30
2018-11-02T09:42:29.156Z,40.57
2018-11-02T09:45:00.127Z,46.30
2018-11-02T09:47:30.834Z,40.63
2018-11-02T09:50:01.640Z,39.50
2018-11-02T09:52:32.281Z,40.60
2018-11-02T09:55:02.905Z,44.03
2018-11-02T09:57:33.599Z,42.03
2018-11-02T10:00:04.450Z,39.73
2018-11-02T10:02:35.287Z,38.77
2018-11-02T10:05:07.111Z,41.17
2018-11-02T10:07:38.906Z,39.93
2018-11-02T10:10:10.929Z,39.30
2018-11-02T10:12:44.043Z,40.10
2018-11-02T10:15:15.857Z,39.27
2018-11-02T10:17:46.694Z,40.00
2018-11-02T10:20:17.223Z,42.20
2018-11-02T10:22:47.727Z,40.40
2018-11-02T10:25:18.305Z,41.60
2018-11-02T10:27:49.455Z,40.97
2018-11-02T10:30:20.366Z,40.73
2018-11-02T10:32:53.265Z,40.03
2018-11-02T10:35:24.745Z,39.93
2018-11-02T10:37:58.041Z,40.70
2018-11-02T10:40:29.394Z,40.70
2018-11-02T10:43:02.909Z,40.70
2018-11-02T10:49:13.215Z,41.80
2018-11-02T10:52:05.554Z,42.83
2018-11-02T10:54:51.496Z,39.27
2018-11-02T10:57:22.242Z,40.80
2018-11-02T10:59:53.153Z,41.17
2018-11-02T11:02:25.127Z,46.13
2018-11-02T11:04:55.606Z,42.53
2018-11-02T11:07:26.237Z,44.10
2018-11-02T11:09:57.046Z,43.00
2018-11-02T11:12:28.009Z,41.73
2018-11-02T11:14:58.571Z,43.00
2018-11-02T11:17:29.096Z,44.87
2018-11-02T11:19:59.969Z,42.00
2018-11-02T11:22:30.519Z,40.90
2018-11-02T11:25:01.120Z,40.50
2018-11-02T11:27:31.584Z,39.33
2018-11-02T11:30:02.173Z,39.67
2018-11-02T11:32:33.022Z,43.57
2018-11-02T11:35:03.775Z,41.30
2018-11-02T11:37:34.320Z,43.97
2018-11-02T11:40:05.397Z,49.17
2018-11-02T11:42:36.275Z,41.93
2018-11-02T11:45:08.637Z,42.13
2018-11-02T11:47:39.482Z,41.23
2018-11-02T11:50:19.597Z,40.90
2018-11-02T11:52:51.687Z,43.27
2018-11-02T11:55:22.594Z,42.00
2018-11-02T11:57:53.178Z,41.00
2018-11-02T12:00:24.514Z,42.00
2018-11-02T12:02:55.064Z,41.17
2018-11-02T12:05:25.542Z,41.13
2018-11-02T12:07:56.230Z,41.33
2018-11-02T12:10:26.911Z,41.27
2018-11-02T12:12:57.699Z,43.27
2018-11-02T12:15:28.495Z,40.50
2018-11-02T12:17:59.263Z,42.50
2018-11-02T12:20:30.801Z,43.30
2018-11-02T12:23:03.335Z,43.07
2018-11-02T12:28:03.064Z,41.53
2018-11-02T12:30:33.708Z,41.70
2018-11-02T12:33:04.360Z,44.40
2018-11-02T12:35:35.247Z,46.10
2018-11-02T12:38:05.646Z,48.73
2018-11-02T12:40:36.699Z,47.90
2018-11-02T12:43:08.529Z,42.87
2018-11-02T12:45:38.885Z,45.17
2018-11-02T12:48:09.374Z,48.60
2018-11-02T12:50:39.807Z,43.47
2018-11-02T12:53:10.255Z,50.07
2018-11-02T12:55:40.859Z,47.33
2018-11-02T12:58:11.825Z,47.43
2018-11-02T13:00:42.343Z,50.70
2018-11-02T13:03:13.562Z,44.43
2018-11-02T13:05:44.465Z,46.60
2018-11-02T13:08:15.019Z,50.25
2018-11-02T13:10:46.144Z,44.60
2018-11-02T13:13:16.880Z,44.83
2018-11-02T13:15:47.650Z,44.83
2018-11-02T13:18:21.138Z,49.13
2018-11-02T13:20:51.796Z,43.90
2018-11-02T13:23:22.675Z,43.97
2018-11-02T13:25:53.478Z,52.03
2018-11-02T13:28:24.395Z,48.80
2018-11-02T13:30:55.290Z,44.77
2018-11-02T13:33:25.789Z,43.17
2018-11-02T13:35:56.636Z,44.43
2018-11-02T13:38:27.336Z,43.23
2018-11-02T13:40:57.876Z,42.37
2018-11-02T13:43:28.584Z,44.33
2018-11-02T13:45:59.259Z,46.03
2018-11-02T13:48:29.865Z,45.27
2018-11-02T13:51:00.449Z,44.53
2018-11-02T13:53:30.970Z,43.93
2018-11-02T13:56:01.673Z,43.33
2018-11-02T13:58:32.205Z,44.20
2018-11-02T14:01:03.282Z,44.83
2018-11-02T14:03:34.224Z,44.53
2018-11-02T14:06:04.839Z,59.33
2018-11-02T14:08:35.498Z,49.57
2018-11-02T14:11:06.356Z,45.03
2018-11-02T14:13:37.196Z,46.57
2018-11-02T14:16:07.643Z,58.47
2018-11-02T14:18:38.818Z,59.83
2018-11-02T14:21:09.388Z,47.33
2018-11-02T14:23:39.894Z,53.83
2018-11-02T14:26:10.613Z,54.87
2018-11-02T14:28:41.382Z,52.33
2018-11-02T14:31:12.149Z,53.30
2018-11-02T14:33:42.601Z,61.70
2018-11-02T14:36:13.110Z,71.53
2018-11-02T14:38:43.698Z,68.90
2018-11-02T14:41:14.224Z,65.73
2018-11-02T14:43:44.710Z,70.20
2018-11-02T14:46:15.360Z,70.20
2018-11-02T14:48:46.961Z,76.00
2018-11-02T14:51:17.581Z,79.70
2018-11-02T14:53:48.302Z,79.37
2018-11-02T14:56:18.800Z,74.67
2018-11-02T14:58:49.493Z,68.73
2018-11-02T15:01:20.103Z,70.37
2018-11-02T15:03:50.519Z,89.77
2018-11-02T15:06:21.190Z,74.57
2018-11-02T15:08:51.959Z,67.87
2018-11-02T15:11:22.529Z,69.20
2018-11-02T15:13:53.413Z,63.20
2018-11-02T15:16:24.015Z,65.33
2018-11-02T15:18:55.433Z,65.83
2018-11-02T15:21:26.217Z,78.07
2018-11-02T15:23:56.653Z,72.27
2018-11-02T15:26:27.672Z,70.40
2018-11-02T15:28:59.281Z,68.17
2018-11-02T15:31:29.794Z,68.47
2018-11-02T15:34:00.346Z,67.27
2018-11-02T15:36:30.892Z,66.60
2018-11-02T15:39:01.490Z,68.83
2018-11-02T15:41:32.459Z,78.90
2018-11-02T15:44:03.189Z,70.50
2018-11-02T15:46:33.550Z,77.80
2018-11-02T15:49:03.982Z,96.53
2018-11-02T15:51:34.752Z,95.07
2018-11-02T15:54:05.538Z,99.47
2018-11-02T15:56:36.091Z,98.77
2018-11-02T15:59:06.603Z,71.53
2018-11-02T16:01:37.248Z,66.93
2018-11-02T16:04:07.772Z,64.33
2018-11-02T16:06:38.512Z,60.00
2018-11-02T16:09:13.046Z,69.27
2018-11-02T16:11:44.260Z,65.80
2018-11-02T16:14:15.448Z,63.70
2018-11-02T16:16:46.236Z,66.27
2018-11-02T16:19:16.974Z,57.43
2018-11-02T16:21:47.738Z,57.43
2018-11-02T16:24:18.632Z,58.23
2018-11-02T16:26:49.712Z,58.47
2018-11-02T16:29:20.579Z,73.67
2018-11-02T16:31:51.277Z,78.20
2018-11-02T16:34:22.168Z,71.37
2018-11-02T16:36:53.166Z,67.47
2018-11-02T16:39:23.816Z,83.37
2018-11-02T16:41:54.910Z,70.07
2018-11-02T16:44:25.465Z,67.40
2018-11-02T16:46:56.191Z,66.80
2018-11-02T16:49:26.853Z,62.37
2018-11-02T16:51:58.103Z,62.20
2018-11-02T16:54:28.978Z,60.93
2018-11-02T16:57:00.163Z,59.43
2018-11-02T16:59:31.193Z,58.17
2018-11-02T17:02:01.735Z,57.20
2018-11-02T17:04:32.568Z,58.30
2018-11-02T17:07:03.609Z,60.60
2018-11-02T17:09:34.388Z,56.23
2018-11-02T17:12:05.431Z,61.63
2018-11-02T17:14:36.003Z,62.50
2018-11-02T17:17:06.578Z,64.10
2018-11-02T17:19:37.143Z,63.43
2018-11-02T17:22:07.773Z,65.87
2018-11-02T17:24:38.363Z,65.53
2018-11-02T17:27:09.084Z,68.67
2018-11-02T17:29:39.610Z,68.83
2018-11-02T17:32:10.413Z,68.00
2018-11-02T17:34:41.319Z,69.43
2018-11-02T17:37:13.024Z,65.67
2018-11-02T17:39:43.805Z,67.23
2018-11-02T17:42:14.590Z,66.83
2018-11-02T17:44:45.375Z,64.70
2018-11-02T17:47:17.290Z,64.27
2018-11-02T17:49:48.030Z,67.47
2018-11-02T17:52:18.793Z,67.63
2018-11-02T17:54:49.332Z,65.73
2018-11-02T17:57:20.796Z,65.73
2018-11-02T17:59:51.598Z,65.13
2018-11-02T18:02:23.721Z,69.53
2018-11-02T18:04:56.777Z,68.77
2018-11-02T18:07:31.276Z,66.87
2018-11-02T18:10:05.942Z,62.43
2018-11-02T18:12:40.233Z,64.43
2018-11-02T18:15:13.980Z,64.57
2018-11-02T18:17:46.820Z,65.37
2018-11-02T18:20:26.577Z,67.57
2018-11-02T18:23:00.430Z,65.83
2018-11-02T18:25:32.113Z,82.80
2018-11-02T18:28:03.461Z,71.47
2018-11-02T18:30:36.261Z,68.43
2018-11-02T18:33:09.536Z,69.90
2018-11-02T18:35:43.632Z,68.70
2018-11-02T18:38:17.109Z,71.83
2018-11-02T18:40:50.168Z,72.27
2018-11-02T18:43:30.989Z,73.77
2018-11-02T18:46:05.046Z,75.23
2018-11-02T18:48:39.297Z,82.33
2018-11-02T18:51:12.555Z,90.13
2018-11-02T18:53:44.197Z,85.83
2018-11-02T18:56:17.253Z,85.73
2018-11-02T18:58:50.405Z,79.20
2018-11-02T19:01:23.772Z,80.00
2018-11-02T19:03:57.003Z,83.80
2018-11-02T19:06:29.843Z,90.03
2018-11-02T19:09:04.926Z,87.77
2018-11-02T19:11:37.998Z,84.90
2018-11-02T19:14:19.385Z,86.27
2018-11-02T19:16:54.524Z,86.60
2018-11-02T19:19:27.271Z,104.13
2018-11-02T19:22:00.728Z,116.77
2018-11-02T19:24:33.920Z,120.83
2018-11-02T19:27:07.525Z,126.43
2018-11-02T19:29:40.749Z,126.87
2018-11-02T19:32:13.640Z,119.00
2018-11-02T19:34:46.858Z,120.40
2018-11-02T19:37:20.281Z,119.80
2018-11-02T19:43:00.170Z,119.60
2018-11-02T19:45:34.129Z,123.73
2018-11-02T19:48:09.648Z,119.97
2018-11-02T19:50:43.284Z,118.13
2018-11-02T19:53:17.025Z,113.70
2018-11-02T19:55:50.770Z,104.97
2018-11-02T19:58:25.410Z,105.50
2018-11-02T20:00:58.313Z,101.37
2018-11-02T20:03:31.390Z,102.37
2018-11-02T20:06:04.284Z,101.80
2018-11-02T20:08:36.154Z,102.03
2018-11-02T20:11:08.623Z,105.83
2018-11-02T20:13:41.018Z,110.03
2018-11-02T20:16:12.558Z,107.37
2018-11-02T20:18:43.719Z,109.57
2018-11-02T20:21:14.733Z,108.13
2018-11-02T20:23:47.661Z,108.17
2018-11-02T20:26:17.993Z,104.73
2018-11-02T20:28:49.083Z,105.80
2018-11-02T20:31:20.574Z,104.43
2018-11-02T20:33:52.484Z,102.07
2018-11-02T20:36:30.259Z,100.37
2018-11-02T20:39:01.358Z,101.00
2018-11-02T20:41:33.782Z,99.10
2018-11-02T20:44:04.941Z,101.13
2018-11-02T20:46:36.654Z,100.80
2018-11-02T20:49:08.416Z,99.70
2018-11-02T20:51:40.944Z,97.77
2018-11-02T20:54:13.329Z,96.17
2018-11-02T20:56:45.667Z,92.80
2018-11-02T20:59:17.575Z,92.10
2018-11-02T21:01:49.614Z,87.23
2018-11-02T21:04:19.931Z,90.10
2018-11-02T21:06:50.335Z,85.63
2018-11-02T21:09:21.020Z,86.07
2018-11-02T21:11:50.942Z,88.40
2018-11-02T21:14:21.362Z,87.17
2018-11-02T21:16:51.737Z,87.73
2018-11-02T21:19:22.130Z,85.57
2018-11-02T21:21:52.829Z,80.63
2018-11-02T21:24:23.306Z,83.23
2018-11-02T21:26:53.593Z,84.23
2018-11-02T21:29:24.251Z,81.33
2018-11-02T21:31:54.539Z,81.40
2018-11-02T21:34:25.004Z,81.30
2018-11-02T21:36:55.263Z,80.33
2018-11-02T21:39:25.666Z,85.73
2018-11-02T21:41:56.435Z,81.33
2018-11-02T21:44:28.004Z,83.07
2018-11-02T21:46:58.676Z,80.27
2018-11-02T21:49:29.080Z,76.50
2018-11-02T21:51:59.588Z,79.27
2018-11-02T22:00:41.336Z,86.40
2018-11-02T22:03:12.145Z,88.40
2018-11-02T22:05:42.698Z,92.57
2018-11-02T22:08:13.155Z,101.87
2018-11-02T22:10:43.564Z,103.37
2018-11-02T22:13:13.825Z,103.70
2018-11-02T22:15:44.129Z,109.43
2018-11-02T22:18:14.993Z,110.73
2018-11-02T22:20:45.568Z,111.00
2018-11-02T22:23:15.810Z,106.77
2018-11-02T22:25:46.348Z,105.07
2018-11-02T22:31:20.360Z,96.53
2018-11-02T22:33:50.705Z,100.10
2018-11-02T22:36:21.065Z,95.60
2018-11-02T22:38:51.325Z,91.53
2018-11-02T22:41:21.694Z,93.63
2018-11-02T22:43:52.444Z,97.00
2018-11-02T22:46:23.017Z,105.50
2018-11-02T22:48:53.390Z,109.43
2018-11-02T22:51:23.892Z,113.50
2018-11-02T22:53:54.255Z,114.30
2018-11-02T22:56:24.660Z,116.13
2018-11-02T22:58:54.942Z,112.30
2018-11-02T23:01:29.179Z,111.67
2018-11-02T23:04:01.040Z,115.47
2018-11-02T23:06:31.499Z,111.37
2018-11-02T23:09:01.869Z,107.93
2018-11-02T23:11:32.311Z,107.97
2018-11-02T23:14:02.668Z,102.27
2018-11-02T23:16:33.127Z,87.00
2018-11-02T23:19:03.595Z,84.17
2018-11-02T23:21:34.314Z,84.23
2018-11-02T23:24:04.714Z,81.13
2018-11-02T23:26:37.443Z,81.80
2018-11-02T23:29:09.010Z,79.47
2018-11-02T23:31:39.640Z,81.10
2018-11-02T23:34:10.011Z,79.90
2018-11-02T23:36:40.385Z,79.10
2018-11-02T23:39:10.821Z,79.43
2018-11-02T23:41:41.204Z,79.07
2018-11-02T23:44:11.496Z,80.30
2018-11-02T23:46:41.961Z,83.90
2018-11-02T23:49:12.488Z,83.77
2018-11-02T23:51:42.798Z,94.33
2018-11-02T23:54:13.335Z,104.13
2018-11-02T23:56:43.769Z,94.43
2018-11-02T23:59:14.271Z,108.00
